Bergamot Ace — ZGAS5 — position and weather

sailwx.info

Track history (hours):
 
Tides and Currents Weather Stations Pressure Air Temp Water Temp Dewpoint Dewpoint Depression Visibility Wind Speed Wind Dir Waves Ship Positions

Bergamot Ace

Last reported at 2015-Feb-27 23:18 UTC. Time now 2015-Mar-27 17:21 UTC.
Position S 34°16' E 025°19'.
Warning: this ship's position is 27 days out of date.

Length 186 m; draft 6.6 m.

Type: Cargo ship. MMSI: 319740000.

Date/timePositionNaut miles runAvg speedWind from/ knotsBaromVisibWave heightAir tempDewpointWater temp
2015-Feb-27 23:18S 34°16' E 025°19'1011.7
2015-Feb-27 22:26S 34°14' E 025°31'  
2015-Feb-24 15:30S 33°58' E 026°13'4 1.5
2015-Feb-24 12:26S 34°01' E 026°17'15 3.6
2015-Feb-24 08:22S 33°59' E 025°60'2 0.2
2015-Feb-23 22:16S 33°57' E 026°01'6 6.9
2015-Feb-23 21:27S 33°55' E 026°07'32514.2
2015-Feb-22 22:33S 30°19' E 030°54'1312.4
2015-Feb-22 21:33S 30°08' E 031°00'1212.1
2015-Feb-22 20:33S 29°57' E 031°07'6 5.8
2015-Feb-22 19:33S 29°53' E 031°02'1 0.5
2015-Feb-22 18:29S 29°52' E 031°02'0 0.0
2015-Feb-22 17:29S 29°52' E 031°02'0 0.0
2015-Feb-22 16:29S 29°52' E 031°02'0 0.0
2015-Feb-22 15:29S 29°52' E 031°02'0 0.0
2015-Feb-22 14:29S 29°52' E 031°02'0 0.0
2015-Feb-22 13:29S 29°52' E 031°02'0 0.0
2015-Feb-22 12:11S 29°52' E 031°02'0 0.0
2015-Feb-22 11:23S 29°52' E 031°02'0 0.0
2015-Feb-22 10:29S 29°52' E 031°02'0 0.0
2015-Feb-22 09:29S 29°52' E 031°02'0 0.0
2015-Feb-22 08:29S 29°52' E 031°02'0 0.0
2015-Feb-22 07:29S 29°52' E 031°02'0 0.0
2015-Feb-22 06:29S 29°52' E 031°02'3 2.9
2015-Feb-22 05:33S 29°51' E 031°05'9 8.7
2015-Feb-22 04:33S 29°48' E 031°14'5 5.0
2015-Feb-22 03:33S 29°47' E 031°20'3 3.2
2015-Feb-22 02:33S 29°50' E 031°18'2 1.6
2015-Feb-22 01:33S 29°50' E 031°19'1010.4
2015-Feb-22 00:33S 29°48' E 031°31'1110.8
2015-Feb-21 23:33S 29°46' E 031°43'2 1.5
2015-Feb-21 22:31S 29°47' E 031°43'2 1.7
2015-Feb-21 21:33S 29°49' E 031°44'1111.2
2015-Feb-21 20:33S 29°38' E 031°44'1111.1
2015-Feb-21 19:33S 29°27' E 031°44'2 1.7
2015-Feb-21 18:30S 29°25' E 031°43'2 2.4
2015-Feb-21 17:33S 29°27' E 031°42'3 2.9
2015-Feb-21 16:33S 29°29' E 031°40'3 3.2
2015-Feb-21 15:33S 29°33' E 031°40'3 2.9
2015-Feb-21 14:32S 29°35' E 031°40'19 7.8
2015-Feb-21 12:09S 29°50' E 031°27'5 7.6
2015-Feb-21 11:32S 29°53' E 031°23'2 2.5
2015-Feb-21 10:32S 29°55' E 031°24'2 2.3
2015-Feb-21 09:32S 29°57' E 031°26'3 2.2
2015-Feb-21 08:23S 29°59' E 031°28'1 1.6
2015-Feb-21 07:29S 29°59' E 031°30'2 2.6
2015-Feb-21 06:33S 29°58' E 031°32'3 3.3
2015-Feb-21 05:33S 29°55' E 031°35'4 3.6
2015-Feb-21 04:33S 29°53' E 031°38'4 3.6
2015-Feb-21 03:33S 29°50' E 031°41'4 3.5
2015-Feb-21 02:33S 29°48' E 031°43'4 3.7
2015-Feb-21 01:33S 29°44' E 031°44'4 3.5
2015-Feb-21 00:33S 29°40' E 031°45'8 8.5
2015-Feb-20 23:34S 29°36' E 031°37'1110.8
2015-Feb-20 22:34S 29°31' E 031°26'2 1.9
2015-Feb-20 21:30S 29°30' E 031°28'2 1.7
2015-Feb-20 20:30S 29°29' E 031°30'1 1.5
2015-Feb-20 19:30S 29°29' E 031°31'1 1.4
2015-Feb-20 18:30S 29°28' E 031°33'2 1.7
2015-Feb-20 17:30S 29°27' E 031°34'2 1.6
2015-Feb-20 16:30S 29°27' E 031°36'1 1.3
2015-Feb-20 15:30S 29°27' E 031°38'2 1.5
2015-Feb-20 14:30S 29°28' E 031°39'1 1.0
2015-Feb-20 13:30S 29°28' E 031°40'1 0.6
2015-Feb-20 12:30S 29°28' E 031°41'1 0.5
2015-Feb-20 11:24S 29°29' E 031°41'1 0.9
2015-Feb-20 10:24S 29°30' E 031°42'1 1.6
2015-Feb-20 09:30S 29°31' E 031°42'2 1.7
2015-Feb-20 08:30S 29°32' E 031°43'1 1.2
2015-Feb-20 07:30S 29°33' E 031°44'1 0.9
2015-Feb-20 06:30S 29°34' E 031°45'1 1.0
2015-Feb-20 05:12S 29°35' E 031°46'1 1.0
2015-Feb-20 04:12S 29°36' E 031°46'1 1.3
2015-Feb-20 03:30S 29°37' E 031°46'1 1.4
2015-Feb-20 02:30S 29°38' E 031°46'1 1.4
2015-Feb-20 01:31S 29°39' E 031°45'1010.5
2015-Feb-20 00:33S 29°36' E 031°35'1212.1
2015-Feb-19 23:33S 29°30' E 031°22'2 2.4
2015-Feb-19 22:33S 29°33' E 031°22'3 2.7
2015-Feb-19 21:26S 29°36' E 031°21'2 2.5
2015-Feb-19 20:32S 29°38' E 031°21'2 2.3
2015-Feb-19 19:32S 29°40' E 031°21'2 1.9
2015-Feb-19 18:32S 29°42' E 031°21'2 1.5
2015-Feb-19 17:32S 29°44' E 031°21'1 1.0
2015-Feb-19 16:32S 29°44' E 031°22'1 1.3
2015-Feb-19 15:32S 29°45' E 031°24'2 2.2
2015-Feb-19 14:32S 29°45' E 031°26'2 2.5
2015-Feb-19 13:32S 29°45' E 031°29'3 2.8
2015-Feb-19 12:33S 29°46' E 031°32'3 3.1
2015-Feb-19 11:33S 29°45' E 031°36'3 2.9
2015-Feb-19 10:28S 29°44' E 031°39'3 2.9
2015-Feb-19 09:33S 29°43' E 031°42'3 2.8
2015-Feb-19 08:33S 29°42' E 031°45'2 2.0
2015-Feb-19 07:33S 29°40' E 031°44'1312.7
2015-Feb-19 06:33S 29°42' E 031°30'1313.4
2015-Feb-19 05:33S 29°48' E 031°16'1 1.3
2015-Feb-19 04:32S 29°48' E 031°15'2 2.2
2015-Feb-19 03:32S 29°48' E 031°17'2 2.1
2015-Feb-19 02:32S 29°46' E 031°19'2 2.0
2015-Feb-19 01:32S 29°45' E 031°21'2 2.0
2015-Feb-19 00:32S 29°44' E 031°23'2 2.1
2015-Feb-18 23:32S 29°43' E 031°25'2 1.8
2015-Feb-18 22:26S 29°42' E 031°27'2 1.8
2015-Feb-18 21:32S 29°42' E 031°29'2 1.9
2015-Feb-18 20:32S 29°41' E 031°31'1 1.1
2015-Feb-18 19:33S 29°41' E 031°30'1111.3
2015-Feb-18 18:33S 29°47' E 031°19'9 9.5
2015-Feb-18 17:33S 29°53' E 031°10'2 2.1
2015-Feb-18 16:31S 29°52' E 031°12'3 2.6
2015-Feb-18 15:31S 29°50' E 031°15'3 2.9
2015-Feb-18 14:33S 29°48' E 031°17'3 2.9
2015-Feb-18 13:33S 29°47' E 031°20'3 2.9
2015-Feb-18 12:32S 29°44' E 031°22'2 2.4
2015-Feb-18 11:32S 29°43' E 031°24'1 1.5
2015-Feb-18 10:33S 29°43' E 031°26'1110.8
2015-Feb-18 09:33S 29°48' E 031°15'7 6.8
2015-Feb-18 08:33S 29°51' E 031°08'2 1.8
2015-Feb-18 07:33S 29°51' E 031°10'2 1.8
2015-Feb-18 06:33S 29°50' E 031°12'2 1.9
2015-Feb-18 05:33S 29°50' E 031°14'2 2.1
2015-Feb-18 04:27S 29°49' E 031°16'2 2.3
2015-Feb-18 03:33S 29°48' E 031°18'2 2.3
2015-Feb-18 02:33S 29°46' E 031°21'2 2.1
2015-Feb-18 01:33S 29°45' E 031°23'0 0.2
2015-Feb-18 00:33S 29°45' E 031°23'1111.0
2015-Feb-17 23:33S 29°53' E 031°13'  
Track history (hours):
 
Tides and Currents Weather Stations Pressure Air Temp Water Temp Dewpoint Dewpoint Depression Visibility Wind Speed Wind Dir Waves Ship Positions

Bergamot Ace

Last reported at 2015-Feb-27 23:18 UTC. Time now 2015-Mar-27 17:21 UTC.
Position S 34°16' E 025°19'.
Warning: this ship's position is 27 days out of date.

Length 186 m; draft 6.6 m.

Type: Cargo ship. MMSI: 319740000.

Date/timePositionNaut miles runAvg speedWind from/ knotsBaromVisibWave heightAir tempDewpointWater temp
2015-Feb-27 23:18S 34°16' E 025°19'1011.7
2015-Feb-27 22:26S 34°14' E 025°31'  
2015-Feb-24 15:30S 33°58' E 026°13'4 1.5
2015-Feb-24 12:26S 34°01' E 026°17'15 3.6
2015-Feb-24 08:22S 33°59' E 025°60'2 0.2
2015-Feb-23 22:16S 33°57' E 026°01'6 6.9
2015-Feb-23 21:27S 33°55' E 026°07'32514.2
2015-Feb-22 22:33S 30°19' E 030°54'1312.4
2015-Feb-22 21:33S 30°08' E 031°00'1212.1
2015-Feb-22 20:33S 29°57' E 031°07'6 5.8
2015-Feb-22 19:33S 29°53' E 031°02'1 0.5
2015-Feb-22 18:29S 29°52' E 031°02'0 0.0
2015-Feb-22 17:29S 29°52' E 031°02'0 0.0
2015-Feb-22 16:29S 29°52' E 031°02'0 0.0
2015-Feb-22 15:29S 29°52' E 031°02'0 0.0
2015-Feb-22 14:29S 29°52' E 031°02'0 0.0
2015-Feb-22 13:29S 29°52' E 031°02'0 0.0
2015-Feb-22 12:11S 29°52' E 031°02'0 0.0
2015-Feb-22 11:23S 29°52' E 031°02'0 0.0
2015-Feb-22 10:29S 29°52' E 031°02'0 0.0
2015-Feb-22 09:29S 29°52' E 031°02'0 0.0
2015-Feb-22 08:29S 29°52' E 031°02'0 0.0
2015-Feb-22 07:29S 29°52' E 031°02'0 0.0
2015-Feb-22 06:29S 29°52' E 031°02'3 2.9
2015-Feb-22 05:33S 29°51' E 031°05'9 8.7
2015-Feb-22 04:33S 29°48' E 031°14'5 5.0
2015-Feb-22 03:33S 29°47' E 031°20'3 3.2
2015-Feb-22 02:33S 29°50' E 031°18'2 1.6
2015-Feb-22 01:33S 29°50' E 031°19'1010.4
2015-Feb-22 00:33S 29°48' E 031°31'1110.8
2015-Feb-21 23:33S 29°46' E 031°43'2 1.5
2015-Feb-21 22:31S 29°47' E 031°43'2 1.7
2015-Feb-21 21:33S 29°49' E 031°44'1111.2
2015-Feb-21 20:33S 29°38' E 031°44'1111.1
2015-Feb-21 19:33S 29°27' E 031°44'2 1.7
2015-Feb-21 18:30S 29°25' E 031°43'2 2.4
2015-Feb-21 17:33S 29°27' E 031°42'3 2.9
2015-Feb-21 16:33S 29°29' E 031°40'3 3.2
2015-Feb-21 15:33S 29°33' E 031°40'3 2.9
2015-Feb-21 14:32S 29°35' E 031°40'19 7.8
2015-Feb-21 12:09S 29°50' E 031°27'5 7.6
2015-Feb-21 11:32S 29°53' E 031°23'2 2.5
2015-Feb-21 10:32S 29°55' E 031°24'2 2.3
2015-Feb-21 09:32S 29°57' E 031°26'3 2.2
2015-Feb-21 08:23S 29°59' E 031°28'1 1.6
2015-Feb-21 07:29S 29°59' E 031°30'2 2.6
2015-Feb-21 06:33S 29°58' E 031°32'3 3.3
2015-Feb-21 05:33S 29°55' E 031°35'4 3.6
2015-Feb-21 04:33S 29°53' E 031°38'4 3.6
2015-Feb-21 03:33S 29°50' E 031°41'4 3.5
2015-Feb-21 02:33S 29°48' E 031°43'4 3.7
2015-Feb-21 01:33S 29°44' E 031°44'4 3.5
2015-Feb-21 00:33S 29°40' E 031°45'8 8.5
2015-Feb-20 23:34S 29°36' E 031°37'1110.8
2015-Feb-20 22:34S 29°31' E 031°26'2 1.9
2015-Feb-20 21:30S 29°30' E 031°28'2 1.7
2015-Feb-20 20:30S 29°29' E 031°30'1 1.5
2015-Feb-20 19:30S 29°29' E 031°31'1 1.4
2015-Feb-20 18:30S 29°28' E 031°33'2 1.7
2015-Feb-20 17:30S 29°27' E 031°34'2 1.6
2015-Feb-20 16:30S 29°27' E 031°36'1 1.3
2015-Feb-20 15:30S 29°27' E 031°38'2 1.5
2015-Feb-20 14:30S 29°28' E 031°39'1 1.0
2015-Feb-20 13:30S 29°28' E 031°40'1 0.6
2015-Feb-20 12:30S 29°28' E 031°41'1 0.5
2015-Feb-20 11:24S 29°29' E 031°41'1 0.9
2015-Feb-20 10:24S 29°30' E 031°42'1 1.6
2015-Feb-20 09:30S 29°31' E 031°42'2 1.7
2015-Feb-20 08:30S 29°32' E 031°43'1 1.2
2015-Feb-20 07:30S 29°33' E 031°44'1 0.9
2015-Feb-20 06:30S 29°34' E 031°45'1 1.0
2015-Feb-20 05:12S 29°35' E 031°46'1 1.0
2015-Feb-20 04:12S 29°36' E 031°46'1 1.3
2015-Feb-20 03:30S 29°37' E 031°46'1 1.4
2015-Feb-20 02:30S 29°38' E 031°46'1 1.4
2015-Feb-20 01:31S 29°39' E 031°45'1010.5
2015-Feb-20 00:33S 29°36' E 031°35'1212.1
2015-Feb-19 23:33S 29°30' E 031°22'2 2.4
2015-Feb-19 22:33S 29°33' E 031°22'3 2.7
2015-Feb-19 21:26S 29°36' E 031°21'2 2.5
2015-Feb-19 20:32S 29°38' E 031°21'2 2.3
2015-Feb-19 19:32S 29°40' E 031°21'2 1.9
2015-Feb-19 18:32S 29°42' E 031°21'2 1.5
2015-Feb-19 17:32S 29°44' E 031°21'1 1.0
2015-Feb-19 16:32S 29°44' E 031°22'1 1.3
2015-Feb-19 15:32S 29°45' E 031°24'2 2.2
2015-Feb-19 14:32S 29°45' E 031°26'2 2.5
2015-Feb-19 13:32S 29°45' E 031°29'3 2.8
2015-Feb-19 12:33S 29°46' E 031°32'3 3.1
2015-Feb-19 11:33S 29°45' E 031°36'3 2.9
2015-Feb-19 10:28S 29°44' E 031°39'3 2.9
2015-Feb-19 09:33S 29°43' E 031°42'3 2.8
2015-Feb-19 08:33S 29°42' E 031°45'2 2.0
2015-Feb-19 07:33S 29°40' E 031°44'1312.7
2015-Feb-19 06:33S 29°42' E 031°30'1313.4
2015-Feb-19 05:33S 29°48' E 031°16'1 1.3
2015-Feb-19 04:32S 29°48' E 031°15'2 2.2
2015-Feb-19 03:32S 29°48' E 031°17'2 2.1
2015-Feb-19 02:32S 29°46' E 031°19'2 2.0
2015-Feb-19 01:32S 29°45' E 031°21'2 2.0
2015-Feb-19 00:32S 29°44' E 031°23'2 2.1
2015-Feb-18 23:32S 29°43' E 031°25'2 1.8
2015-Feb-18 22:26S 29°42' E 031°27'2 1.8
2015-Feb-18 21:32S 29°42' E 031°29'2 1.9
2015-Feb-18 20:32S 29°41' E 031°31'1 1.1
2015-Feb-18 19:33S 29°41' E 031°30'1111.3
2015-Feb-18 18:33S 29°47' E 031°19'9 9.5
2015-Feb-18 17:33S 29°53' E 031°10'2 2.1
2015-Feb-18 16:31S 29°52' E 031°12'3 2.6
2015-Feb-18 15:31S 29°50' E 031°15'3 2.9
2015-Feb-18 14:33S 29°48' E 031°17'3 2.9
2015-Feb-18 13:33S 29°47' E 031°20'3 2.9
2015-Feb-18 12:32S 29°44' E 031°22'2 2.4
2015-Feb-18 11:32S 29°43' E 031°24'1 1.5
2015-Feb-18 10:33S 29°43' E 031°26'1110.8
2015-Feb-18 09:33S 29°48' E 031°15'7 6.8
2015-Feb-18 08:33S 29°51' E 031°08'2 1.8
2015-Feb-18 07:33S 29°51' E 031°10'2 1.8
2015-Feb-18 06:33S 29°50' E 031°12'2 1.9
2015-Feb-18 05:33S 29°50' E 031°14'2 2.1
2015-Feb-18 04:27S 29°49' E 031°16'2 2.3
2015-Feb-18 03:33S 29°48' E 031°18'2 2.3
2015-Feb-18 02:33S 29°46' E 031°21'2 2.1
2015-Feb-18 01:33S 29°45' E 031°23'0 0.2
2015-Feb-18 00:33S 29°45' E 031°23'1111.0
2015-Feb-17 23:33S 29°53' E 031°13'  

Dump ship's entire track history